Time;durP1;ratioP1;P1;durP2;ratioP2;P2;SDS_P1;SDS_P2;PMS_P1;PMS_P2;Temp;Humidity;BMP_temperature;BMP_pressure;BME280_temperature;BME280_humidity;BME280_pressure;Samples;Min_cycle;Max_cycle;Signal;HPM_P1;HPM_P2
2022/01/26 00:07:37;;;;;;;27.17;18.53;;;1.40;78.30;;;;;;6226693;28;20195;-58
2022/01/26 00:10:37;;;;;;;28.17;19.63;;;1.40;78.70;;;;;;6267389;28;20225;-58
2022/01/26 00:13:38;;;;;;;34.67;21.90;;;1.50;78.70;;;;;;6221509;28;20223;-58
2022/01/26 00:16:42;;;;;;;28.17;20.03;;;1.50;78.70;;;;;;6259012;28;20228;-58
2022/01/26 00:19:58;;;;;;;25.60;16.87;;;1.50;78.80;;;;;;6280559;28;20191;-57
2022/01/26 00:23:09;;;;;;;24.97;16.47;;;1.50;78.80;;;;;;6219814;28;20272;-58
2022/01/26 00:26:22;;;;;;;24.60;15.57;;;1.60;78.80;;;;;;6233385;28;20195;-57
2022/01/26 00:29:24;;;;;;;22.13;15.17;;;1.60;78.60;;;;;;6259037;28;20197;-57
2022/01/26 00:39:16;;;;;;;23.40;15.43;;;1.40;79.20;;;;;;6290935;28;20174;-55
2022/01/26 00:42:16;;;;;;;22.50;14.73;;;1.50;79.30;;;;;;6241725;28;20241;-57
2022/01/26 00:45:22;;;;;;;23.30;14.27;;;1.50;79.20;;;;;;6241645;28;20197;-57
2022/01/26 00:48:24;;;;;;;19.23;13.33;;;1.50;79.10;;;;;;6242722;28;20277;-58
2022/01/26 00:51:25;;;;;;;20.03;14.07;;;1.50;78.90;;;;;;6243866;28;20198;-57
2022/01/26 00:54:27;;;;;;;23.37;14.83;;;1.50;78.80;;;;;;6217181;28;20236;-57
2022/01/26 00:57:28;;;;;;;22.27;14.13;;;1.70;78.80;;;;;;6239281;28;20266;-57
2022/01/26 01:00:29;;;;;;;18.70;12.97;;;1.70;78.40;;;;;;6247327;28;20190;-57
2022/01/26 01:03:33;;;;;;;20.53;13.67;;;1.60;78.30;;;;;;6274217;28;20194;-58
2022/01/26 01:06:44;;;;;;;19.67;14.33;;;1.60;78.30;;;;;;6257719;28;20228;-60
2022/01/26 01:09:45;;;;;;;22.87;14.70;;;1.70;78.30;;;;;;6225514;28;20244;-60
2022/01/26 01:12:48;;;;;;;23.10;14.57;;;1.70;78.30;;;;;;6257673;28;20186;-57
2022/01/26 01:15:51;;;;;;;19.30;12.60;;;1.70;78.40;;;;;;6232806;28;20201;-59
2022/01/26 01:19:02;;;;;;;22.47;15.10;;;1.70;78.40;;;;;;6234248;28;20194;-59
2022/01/26 01:32:14;;;;;;;25.17;15.00;;;1.60;78.60;;;;;;6249381;28;20225;-51
2022/01/26 01:35:15;;;;;;;23.10;15.60;;;1.60;78.80;;;;;;6244505;28;20195;-56
2022/01/26 01:38:17;;;;;;;22.07;15.13;;;1.70;78.80;;;;;;6240695;28;20217;-55
2022/01/26 01:41:18;;;;;;;25.73;15.30;;;1.70;78.80;;;;;;6224824;28;20275;-53
2022/01/26 01:44:19;;;;;;;25.70;15.20;;;1.70;78.70;;;;;;6224262;28;20233;-58
2022/01/26 01:47:19;;;;;;;20.47;14.43;;;1.80;78.20;;;;;;6240210;28;20197;-55
2022/01/26 01:50:20;;;;;;;21.90;14.10;;;1.80;78.30;;;;;;6256529;28;20200;-58
2022/01/26 01:53:30;;;;;;;28.13;15.07;;;1.70;78.40;;;;;;6217902;28;20203;-56
2022/01/26 01:56:31;;;;;;;20.33;14.27;;;1.80;78.60;;;;;;6253891;28;20198;-56
2022/01/26 01:59:33;;;;;;;24.90;15.50;;;1.70;78.30;;;;;;6273287;28;20182;-57
2022/01/26 02:02:34;;;;;;;20.30;13.70;;;1.70;78.50;;;;;;6220583;28;20249;-57
2022/01/26 02:05:35;;;;;;;22.60;14.93;;;1.70;78.80;;;;;;6248719;28;20190;-56
2022/01/26 02:08:36;;;;;;;23.10;14.73;;;1.70;78.80;;;;;;6232030;28;20211;-56
2022/01/26 02:11:50;;;;;;;24.20;14.73;;;1.70;79.00;;;;;;6222483;28;20198;-57
2022/01/26 02:15:03;;;;;;;19.33;13.57;;;1.70;79.00;;;;;;6256956;28;20184;-55
2022/01/26 02:18:38;;;;;;;21.97;14.23;;;1.70;79.00;;;;;;6240364;28;20197;-58
2022/01/26 02:22:01;;;;;;;21.57;14.50;;;1.60;79.10;;;;;;6261207;28;20214;-58
2022/01/26 02:52:48;;;;;;;22.63;16.17;;;1.80;79.30;;;;;;6241876;28;20190;-57
2022/01/26 02:55:23;;;;;;;22.87;15.57;;;1.80;79.30;;;;;;6263721;28;20247;-57
2022/01/26 03:01:57;;;;;;;24.33;15.93;;;1.80;79.00;;;;;;6242384;28;20305;-56
2022/01/26 03:05:00;;;;;;;25.13;15.40;;;1.80;78.90;;;;;;6279924;28;20191;-54
2022/01/26 03:08:06;;;;;;;20.77;14.40;;;1.80;79.00;;;;;;6233741;28;20281;-55
2022/01/26 03:11:10;;;;;;;23.37;14.80;;;1.80;79.10;;;;;;6281918;28;20194;-54
2022/01/26 03:14:47;;;;;;;24.23;15.90;;;1.80;79.20;;;;;;6228117;28;20281;-56
2022/01/26 03:20:40;;;;;;;23.90;15.23;;;1.80;79.50;;;;;;6245637;28;20213;-57
2022/01/26 03:30:31;;;;;;;22.83;14.93;;;1.80;79.30;;;;;;6234159;28;20237;-59
2022/01/26 03:36:58;;;;;;;27.63;17.63;;;1.80;79.40;;;;;;6254398;28;20214;-56
2022/01/26 03:39:58;;;;;;;25.60;16.67;;;1.80;79.40;;;;;;6285680;28;20195;-61
2022/01/26 03:43:00;;;;;;;22.17;15.60;;;1.80;79.60;;;;;;6243940;28;20299;-60
2022/01/26 03:46:00;;;;;;;22.47;15.77;;;1.80;79.10;;;;;;6226510;28;20202;-60
2022/01/26 03:49:02;;;;;;;20.80;13.93;;;1.80;79.20;;;;;;6251059;28;20193;-61
2022/01/26 03:52:04;;;;;;;24.10;15.50;;;1.80;79.40;;;;;;6235747;28;20212;-59
2022/01/26 03:55:06;;;;;;;25.87;17.07;;;1.80;79.50;;;;;;6240188;28;20202;-60
2022/01/26 03:58:07;;;;;;;23.53;16.67;;;1.80;79.30;;;;;;6237208;28;20234;-60
2022/01/26 04:01:08;;;;;;;25.73;15.67;;;1.80;79.40;;;;;;6234081;28;20229;-60
2022/01/26 04:04:08;;;;;;;23.47;15.43;;;1.80;79.40;;;;;;6267120;28;20198;-60
2022/01/26 04:07:09;;;;;;;22.57;15.87;;;1.80;79.30;;;;;;6242674;28;20186;-57
2022/01/26 04:10:25;;;;;;;23.40;15.90;;;1.80;79.20;;;;;;6242673;28;20280;-58
2022/01/26 04:13:26;;;;;;;21.33;15.13;;;1.80;79.20;;;;;;6229345;28;20252;-57
2022/01/26 04:16:27;;;;;;;26.53;16.90;;;1.80;79.20;;;;;;6280653;28;20266;-58
2022/01/26 04:19:30;;;;;;;23.93;16.93;;;1.90;79.10;;;;;;6256154;28;20193;-58
2022/01/26 04:22:40;;;;;;;27.77;18.20;;;1.80;78.90;;;;;;6266972;28;20218;-58
2022/01/26 04:25:43;;;;;;;23.77;15.83;;;1.80;78.60;;;;;;6279322;28;20209;-57
2022/01/26 04:28:51;;;;;;;23.47;16.63;;;1.90;78.80;;;;;;6230512;28;20186;-57
2022/01/26 04:31:52;;;;;;;23.57;15.80;;;1.80;78.90;;;;;;6230111;28;20202;-58
2022/01/26 04:34:53;;;;;;;22.53;15.23;;;1.80;78.90;;;;;;6271692;28;20197;-57
2022/01/26 04:38:21;;;;;;;24.47;16.03;;;1.80;79.10;;;;;;6233998;28;20247;-61
2022/01/26 04:44:31;;;;;;;26.77;18.23;;;1.80;79.00;;;;;;6235862;28;20242;-59
2022/01/26 04:47:32;;;;;;;24.47;15.87;;;1.80;78.90;;;;;;6250150;28;20278;-58
2022/01/26 04:50:32;;;;;;;25.17;17.00;;;1.80;78.90;;;;;;6232784;28;20216;-56
2022/01/26 04:53:33;;;;;;;21.40;15.27;;;1.80;78.80;;;;;;6241577;28;20227;-59
2022/01/26 04:56:34;;;;;;;24.57;16.40;;;1.80;78.80;;;;;;6238398;28;20194;-59
2022/01/26 04:59:35;;;;;;;24.80;17.10;;;1.80;78.70;;;;;;6263164;28;20269;-59
2022/01/26 05:02:36;;;;;;;26.10;16.47;;;1.80;78.70;;;;;;6241718;28;20247;-59
2022/01/26 05:05:37;;;;;;;26.60;17.00;;;1.90;78.60;;;;;;6240972;28;20243;-59
2022/01/26 05:08:38;;;;;;;30.33;18.87;;;1.90;78.50;;;;;;6258062;28;20193;-59
2022/01/26 05:11:42;;;;;;;28.20;18.87;;;1.80;78.40;;;;;;6273304;28;20243;-58
2022/01/26 05:14:45;;;;;;;31.43;18.90;;;1.80;78.80;;;;;;6254758;28;20194;-58
2022/01/26 05:17:46;;;;;;;29.17;18.77;;;1.90;78.50;;;;;;6241411;28;20299;-58
2022/01/26 05:20:47;;;;;;;25.77;16.93;;;1.80;78.40;;;;;;6241115;28;20235;-58
2022/01/26 05:23:48;;;;;;;27.70;18.83;;;1.70;78.70;;;;;;6232956;28;20190;-56
2022/01/26 05:26:49;;;;;;;25.33;17.27;;;1.70;78.80;;;;;;6249025;28;20204;-52
2022/01/26 05:29:49;;;;;;;26.73;17.40;;;1.80;78.80;;;;;;6204973;28;20213;-54
2022/01/26 05:32:50;;;;;;;28.93;18.10;;;1.80;78.80;;;;;;6233172;28;20200;-56
2022/01/26 05:35:51;;;;;;;26.53;17.70;;;1.80;79.00;;;;;;6252077;28;20202;-51
2022/01/26 05:38:52;;;;;;;29.23;18.43;;;1.80;79.10;;;;;;6254652;28;20189;-54
2022/01/26 05:41:53;;;;;;;28.57;16.97;;;1.80;79.10;;;;;;6256244;28;20247;-51
2022/01/26 05:44:59;;;;;;;25.57;16.90;;;1.80;79.00;;;;;;6267054;28;20296;-55
2022/01/26 05:48:08;;;;;;;20.83;15.03;;;1.80;79.20;;;;;;6256078;28;20206;-56
2022/01/26 05:51:11;;;;;;;24.00;14.77;;;1.80;79.30;;;;;;6228777;28;20207;-54
2022/01/26 05:54:13;;;;;;;26.00;15.47;;;1.80;79.30;;;;;;6281547;28;20623;-52
2022/01/26 05:57:14;;;;;;;26.13;16.50;;;1.80;79.10;;;;;;6245744;28;20224;-54
2022/01/26 06:00:15;;;;;;;24.87;17.33;;;1.80;79.20;;;;;;6233257;28;20204;-55
2022/01/26 06:03:16;;;;;;;25.33;16.27;;;1.80;79.00;;;;;;6233801;28;20217;-55
2022/01/26 06:06:17;;;;;;;24.63;16.73;;;1.80;79.00;;;;;;6263414;28;20194;-53
2022/01/26 06:09:18;;;;;;;23.60;15.10;;;1.80;78.90;;;;;;6281614;28;20194;-55
2022/01/26 06:12:19;;;;;;;23.70;16.23;;;1.90;78.90;;;;;;6236761;28;20247;-55
2022/01/26 06:15:20;;;;;;;24.10;16.07;;;1.90;78.70;;;;;;6229111;28;20242;-51
2022/01/26 06:18:21;;;;;;;24.83;15.73;;;1.90;78.70;;;;;;6239234;28;20197;-52
2022/01/26 06:21:21;;;;;;;19.50;14.47;;;1.90;78.60;;;;;;6262591;28;20229;-54
2022/01/26 06:24:22;;;;;;;23.20;16.10;;;1.80;78.60;;;;;;6227710;28;20185;-53
2022/01/26 06:27:23;;;;;;;25.13;17.23;;;1.90;78.40;;;;;;6246274;28;20194;-55
2022/01/26 06:30:25;;;;;;;23.33;14.93;;;1.80;78.50;;;;;;6246111;28;20194;-55
2022/01/26 06:33:27;;;;;;;23.83;14.67;;;1.80;78.40;;;;;;6235743;28;20197;-51
2022/01/26 06:36:28;;;;;;;19.90;13.87;;;1.80;78.10;;;;;;6237821;28;20194;-53
2022/01/26 06:39:29;;;;;;;24.77;15.20;;;1.80;78.20;;;;;;6259819;28;20201;-53
2022/01/26 06:42:36;;;;;;;25.90;14.83;;;1.90;78.40;;;;;;6230369;28;20588;-52
2022/01/26 06:45:44;;;;;;;20.80;14.07;;;1.80;78.00;;;;;;6252062;28;20190;-52
2022/01/26 06:49:28;;;;;;;23.10;14.70;;;1.80;78.50;;;;;;6235743;28;20194;-50
2022/01/26 06:52:21;;;;;;;18.23;12.90;;;1.80;78.50;;;;;;6272253;28;20194;-54
2022/01/26 06:55:22;;;;;;;19.80;13.13;;;2.00;78.20;;;;;;6244144;28;20225;-52
2022/01/26 06:58:24;;;;;;;23.20;14.37;;;2.00;78.10;;;;;;6247376;28;20194;-54
2022/01/26 07:01:24;;;;;;;20.13;13.10;;;2.00;77.60;;;;;;6268650;28;20237;-57
2022/01/26 07:04:25;;;;;;;19.57;13.43;;;2.10;77.80;;;;;;6260517;28;20190;-53
2022/01/26 07:07:26;;;;;;;21.80;13.20;;;2.10;77.60;;;;;;6268980;28;20280;-53
2022/01/26 07:10:27;;;;;;;17.87;12.47;;;1.90;77.30;;;;;;6270141;28;20186;-54
2022/01/26 07:13:28;;;;;;;17.60;11.50;;;1.90;77.60;;;;;;6277337;28;20191;-52
2022/01/26 07:19:53;;;;;;;18.13;11.83;;;2.00;76.40;;;;;;6260704;28;20215;-55
2022/01/26 07:22:54;;;;;;;17.57;12.07;;;2.00;76.70;;;;;;6259538;28;20337;-55
2022/01/26 07:25:54;;;;;;;20.10;12.97;;;2.10;76.20;;;;;;6271055;28;20194;-51
2022/01/26 07:29:05;;;;;;;17.03;13.47;;;2.10;76.40;;;;;;6268731;28;20198;-50
2022/01/26 07:32:07;;;;;;;19.97;13.77;;;2.10;76.40;;;;;;6265771;28;20256;-53
2022/01/26 07:35:08;;;;;;;22.73;13.93;;;2.20;76.50;;;;;;6276221;28;20347;-53
2022/01/26 07:38:09;;;;;;;16.77;11.67;;;2.10;76.10;;;;;;6293421;28;20201;-53
2022/01/26 07:41:10;;;;;;;20.23;13.50;;;2.00;76.70;;;;;;6262351;28;20209;-54
2022/01/26 07:44:11;;;;;;;20.87;13.83;;;2.20;76.10;;;;;;6276403;28;20243;-55
2022/01/26 07:47:12;;;;;;;21.50;13.83;;;2.30;75.30;;;;;;6308598;28;20225;-54
2022/01/26 07:50:15;;;;;;;17.33;11.53;;;2.30;74.70;;;;;;6241962;28;20198;-51
2022/01/26 07:53:17;;;;;;;17.57;12.77;;;2.30;74.70;;;;;;6235269;28;20193;-53
2022/01/26 07:56:18;;;;;;;18.80;12.67;;;2.30;74.70;;;;;;6227924;28;20216;-52
2022/01/26 07:59:19;;;;;;;17.67;12.17;;;2.40;75.00;;;;;;6238021;28;20224;-54
2022/01/26 08:02:21;;;;;;;16.40;12.17;;;2.40;75.30;;;;;;6232480;28;20231;-55
2022/01/26 08:05:22;;;;;;;16.77;12.03;;;2.50;74.90;;;;;;6241808;28;20197;-52
2022/01/26 08:08:22;;;;;;;18.00;12.00;;;2.60;74.30;;;;;;6234334;28;20240;-50
2022/01/26 08:11:24;;;;;;;16.37;10.73;;;2.60;73.90;;;;;;6236348;28;20264;-51
2022/01/26 08:14:25;;;;;;;15.20;10.67;;;2.60;73.90;;;;;;6250328;28;20208;-51
2022/01/26 08:17:26;;;;;;;14.97;10.17;;;2.70;73.10;;;;;;6253812;28;20197;-48
2022/01/26 08:20:27;;;;;;;12.80;8.77;;;2.90;71.90;;;;;;6243180;28;20207;-52
2022/01/26 08:23:28;;;;;;;13.33;9.07;;;2.90;70.70;;;;;;6242260;28;20225;-52
2022/01/26 08:26:39;;;;;;;13.83;8.90;;;3.00;71.40;;;;;;6258584;28;20656;-49
2022/01/26 08:29:47;;;;;;;11.63;7.83;;;3.30;70.00;;;;;;6240326;28;20190;-57
2022/01/26 08:32:48;;;;;;;10.27;7.27;;;3.10;70.60;;;;;;6242994;28;20243;-56
2022/01/26 08:35:49;;;;;;;11.00;8.53;;;3.30;69.10;;;;;;6258294;28;20201;-57
2022/01/26 08:38:50;;;;;;;13.50;8.23;;;3.10;69.80;;;;;;6242464;28;20185;-53
2022/01/26 08:41:51;;;;;;;12.57;8.70;;;3.20;69.90;;;;;;6258213;28;20295;-52
2022/01/26 08:44:52;;;;;;;12.50;8.87;;;3.20;69.90;;;;;;6273441;28;20237;-53
2022/01/26 08:47:53;;;;;;;11.70;8.10;;;3.20;69.60;;;;;;6256893;28;20186;-53
2022/01/26 08:50:54;;;;;;;10.53;7.13;;;3.20;70.60;;;;;;6249060;28;20201;-55
2022/01/26 08:53:54;;;;;;;12.63;7.33;;;3.30;70.50;;;;;;6252986;28;20233;-51
2022/01/26 08:56:56;;;;;;;13.20;8.10;;;3.30;70.20;;;;;;6255238;28;20200;-54
2022/01/26 08:59:58;;;;;;;9.50;7.10;;;3.10;70.90;;;;;;6239708;28;20182;-55
2022/01/26 09:02:59;;;;;;;10.67;7.70;;;3.10;70.70;;;;;;6239021;28;20304;-52
2022/01/26 09:06:00;;;;;;;13.27;8.07;;;3.20;70.40;;;;;;6216022;28;20220;-51
2022/01/26 09:09:06;;;;;;;13.37;8.37;;;3.20;69.90;;;;;;6267493;28;20193;-56
2022/01/26 09:12:09;;;;;;;10.17;7.47;;;3.50;68.90;;;;;;6240928;28;20194;-53
2022/01/26 09:15:11;;;;;;;11.47;8.67;;;3.60;67.80;;;;;;6254586;28;20219;-53
2022/01/26 09:18:19;;;;;;;12.20;9.47;;;3.30;68.40;;;;;;6236405;28;20286;-53
2022/01/26 09:21:24;;;;;;;11.83;8.23;;;3.10;69.90;;;;;;6254486;28;20243;-56
2022/01/26 09:24:31;;;;;;;15.67;9.90;;;3.10;70.40;;;;;;6238563;28;20252;-53
2022/01/26 09:27:32;;;;;;;13.20;8.83;;;3.10;69.30;;;;;;6256304;28;20186;-56
2022/01/26 09:30:33;;;;;;;15.37;8.37;;;3.00;70.20;;;;;;6252488;28;20674;-56
2022/01/26 09:33:33;;;;;;;13.60;8.00;;;3.00;70.10;;;;;;6248306;28;20221;-56
2022/01/26 09:36:34;;;;;;;11.27;7.73;;;3.30;69.00;;;;;;6242346;28;20456;-52
2022/01/26 09:39:37;;;;;;;12.93;8.57;;;3.30;68.70;;;;;;6246842;28;20197;-54
2022/01/26 09:42:40;;;;;;;11.87;8.57;;;3.50;68.10;;;;;;6203700;28;1131031;-55
2022/01/26 09:45:41;;;;;;;11.30;7.67;;;3.40;68.60;;;;;;6264774;28;20277;-55
2022/01/26 09:48:43;;;;;;;12.60;8.30;;;3.40;67.80;;;;;;6249360;28;20199;-53
2022/01/26 09:51:49;;;;;;;14.77;9.23;;;3.60;67.60;;;;;;6246642;28;20277;-57
2022/01/26 09:54:50;;;;;;;13.80;8.30;;;3.80;67.30;;;;;;6266839;28;20197;-54
2022/01/26 09:57:57;;;;;;;14.70;8.33;;;3.80;66.90;;;;;;6233454;28;20182;-56
2022/01/26 10:01:03;;;;;;;12.27;8.80;;;3.60;67.40;;;;;;6234711;28;20790;-53
2022/01/26 10:04:04;;;;;;;12.70;8.30;;;3.60;67.90;;;;;;6234578;28;20189;-57
2022/01/26 10:07:12;;;;;;;11.77;7.87;;;3.90;66.50;;;;;;6233765;28;20198;-57
2022/01/26 10:19:37;;;;;;;13.17;8.63;;;4.00;65.30;;;;;;6262372;28;20261;-57
2022/01/26 10:22:38;;;;;;;13.60;8.67;;;4.00;65.80;;;;;;6234644;28;20221;-59
2022/01/26 10:25:43;;;;;;;13.50;9.10;;;4.10;66.10;;;;;;6253310;28;20218;-57
2022/01/26 10:28:49;;;;;;;12.93;8.80;;;4.20;66.00;;;;;;6277598;28;20197;-55
2022/01/26 10:31:50;;;;;;;12.10;9.07;;;4.20;66.20;;;;;;6266365;28;20186;-55
2022/01/26 10:35:01;;;;;;;15.13;9.40;;;4.30;65.20;;;;;;6259248;28;20197;-53
2022/01/26 10:38:02;;;;;;;15.43;9.13;;;4.20;65.80;;;;;;6255956;28;20182;-55
2022/01/26 10:41:18;;;;;;;14.67;9.23;;;4.30;65.10;;;;;;6231295;28;20205;-56
2022/01/26 10:44:33;;;;;;;19.37;10.37;;;4.20;65.50;;;;;;6233701;28;20235;-58
2022/01/26 10:47:38;;;;;;;15.77;8.83;;;4.00;65.40;;;;;;6239929;28;20184;-53
2022/01/26 10:53:44;;;;;;;14.20;9.70;;;3.90;67.60;;;;;;6253207;28;20256;-57
2022/01/26 10:56:45;;;;;;;19.63;11.10;;;3.90;67.30;;;;;;6248543;28;20214;-56
2022/01/26 10:59:49;;;;;;;16.07;11.13;;;4.00;66.50;;;;;;6215777;28;20186;-56
2022/01/26 11:02:52;;;;;;;19.90;12.47;;;4.00;66.90;;;;;;6247806;28;20290;-57
2022/01/26 11:05:53;;;;;;;18.73;13.57;;;4.10;66.60;;;;;;6215118;28;20194;-56
2022/01/26 11:08:59;;;;;;;19.83;12.07;;;4.20;66.40;;;;;;6231894;28;20251;-55
2022/01/26 11:12:04;;;;;;;19.63;13.60;;;4.20;66.60;;;;;;6260239;28;20187;-55
2022/01/26 11:15:11;;;;;;;19.20;13.50;;;3.80;67.30;;;;;;6246963;28;20195;-56
2022/01/26 11:18:19;;;;;;;19.97;13.50;;;4.00;67.00;;;;;;6239800;28;20199;-54
2022/01/26 11:21:33;;;;;;;19.20;13.20;;;4.10;66.60;;;;;;6227783;28;20211;-57
2022/01/26 11:24:43;;;;;;;17.90;12.60;;;4.40;65.70;;;;;;6251688;28;20198;-53
2022/01/26 11:27:44;;;;;;;23.83;14.67;;;4.40;65.70;;;;;;6248427;28;20321;-56
2022/01/26 11:30:46;;;;;;;22.83;13.63;;;4.60;65.10;;;;;;6238258;28;20194;-55
2022/01/26 11:33:49;;;;;;;22.57;14.40;;;4.40;65.00;;;;;;6219302;28;20213;-60
2022/01/26 11:36:49;;;;;;;24.07;14.73;;;4.60;64.80;;;;;;6238643;28;20198;-55
2022/01/26 11:46:37;;;;;;;20.90;13.17;;;4.20;65.60;;;;;;6245125;28;20202;-52
2022/01/26 11:49:44;;;;;;;21.47;14.67;;;4.20;66.00;;;;;;6211034;28;20207;-56
2022/01/26 11:52:56;;;;;;;22.23;13.30;;;4.30;66.00;;;;;;6210310;28;20196;-54
2022/01/26 11:56:08;;;;;;;22.30;12.87;;;4.50;65.20;;;;;;6227471;28;20195;-55
2022/01/26 11:59:20;;;;;;;24.13;13.80;;;4.60;65.00;;;;;;6251409;28;20230;-54
2022/01/26 12:05:29;;;;;;;22.17;14.33;;;4.80;64.00;;;;;;6259671;28;20224;-57
2022/01/26 12:08:38;;;;;;;21.33;13.53;;;4.80;63.70;;;;;;6259339;28;20206;-52
2022/01/26 12:11:40;;;;;;;22.40;14.50;;;4.80;63.90;;;;;;6229749;28;20229;-53
2022/01/26 12:14:41;;;;;;;28.07;16.00;;;4.80;64.30;;;;;;6250628;28;20190;-54
2022/01/26 12:18:21;;;;;;;19.87;12.60;;;4.50;64.40;;;;;;6200487;28;20246;-52
2022/01/26 12:35:08;;;;;;;22.50;14.67;;;5.00;63.00;;;;;;6222139;28;20215;-57
2022/01/26 12:44:19;;;;;;;22.17;13.67;;;4.70;63.50;;;;;;6237545;28;20243;-58
2022/01/26 12:47:20;;;;;;;21.07;13.37;;;4.50;64.80;;;;;;6209182;28;20285;-58
2022/01/26 12:50:22;;;;;;;28.73;14.73;;;4.70;64.60;;;;;;6208939;28;20194;-56
2022/01/26 12:53:27;;;;;;;22.17;13.60;;;5.00;62.70;;;;;;6256209;28;20205;-53
2022/01/26 12:56:30;;;;;;;26.40;13.93;;;5.00;62.60;;;;;;6225084;28;20207;-56
2022/01/26 12:59:30;;;;;;;22.77;14.07;;;5.20;62.00;;;;;;6257012;28;20202;-57
2022/01/26 13:02:31;;;;;;;26.03;15.40;;;5.20;61.90;;;;;;6229727;28;20221;-57
2022/01/26 13:05:32;;;;;;;21.97;15.07;;;5.00;62.40;;;;;;6249899;28;20190;-57
2022/01/26 13:09:00;;;;;;;27.60;15.87;;;4.90;62.90;;;;;;6241871;28;20190;-54
2022/01/26 13:12:03;;;;;;;22.20;12.63;;;4.80;63.60;;;;;;6246883;28;20230;-58
2022/01/26 13:15:19;;;;;;;19.37;12.63;;;5.00;62.70;;;;;;6232542;28;20203;-56
2022/01/26 13:19:12;;;;;;;18.93;12.60;;;5.10;61.80;;;;;;6232849;28;20191;-59
2022/01/26 13:28:33;;;;;;;17.93;12.13;;;5.30;61.20;;;;;;6235663;28;20198;-59
2022/01/26 13:35:07;;;;;;;18.23;12.43;;;5.20;61.50;;;;;;6235023;28;20233;-59
2022/01/26 13:45:00;;;;;;;21.27;12.90;;;5.60;60.10;;;;;;6248598;28;20246;-59
2022/01/26 14:00:31;;;;;;;20.73;13.37;;;5.60;59.90;;;;;;6249320;28;20186;-58
2022/01/26 14:03:34;;;;;;;20.53;12.97;;;5.40;60.10;;;;;;6215896;28;20223;-56
2022/01/26 14:06:35;;;;;;;19.67;13.07;;;5.50;60.70;;;;;;6248424;28;20601;-58
2022/01/26 14:09:37;;;;;;;21.07;13.77;;;5.60;59.40;;;;;;6281604;28;20195;-57
2022/01/26 14:12:45;;;;;;;23.27;14.13;;;5.40;59.20;;;;;;6248552;28;20305;-59
2022/01/26 14:15:49;;;;;;;20.73;13.87;;;5.40;60.00;;;;;;6216832;28;20225;-58
2022/01/26 14:25:23;;;;;;;21.10;13.17;;;7.40;55.50;;;;;;6239927;28;20202;-55
2022/01/26 14:28:31;;;;;;;21.93;14.33;;;7.70;53.50;;;;;;6255876;28;20194;-56
2022/01/26 14:31:55;;;;;;;20.63;14.60;;;7.40;54.20;;;;;;6233266;28;20195;-56
2022/01/26 14:35:26;;;;;;;22.43;14.53;;;7.30;54.40;;;;;;6227489;28;20236;-56
2022/01/26 15:31:17;;;;;;;20.90;13.30;;;3.50;67.00;;;;;;6261037;28;20202;-57
2022/01/26 15:40:43;;;;;;;22.37;14.30;;;3.40;67.30;;;;;;6281092;28;20197;-55
2022/01/26 16:12:43;;;;;;;20.83;13.83;;;2.80;70.10;;;;;;6292482;28;20201;-57
2022/01/26 16:35:31;;;;;;;21.07;13.80;;;2.70;71.10;;;;;;6284820;28;20186;-59
2022/01/26 16:38:51;;;;;;;18.77;12.93;;;2.70;71.00;;;;;;6258675;28;20308;-59
2022/01/26 17:37:49;;;;;;;25.57;14.83;;;2.70;71.10;;;;;;6276574;28;20201;-57
2022/01/26 17:55:07;;;;;;;26.70;17.57;;;2.70;70.90;;;;;;6289345;28;20198;-57
2022/01/26 18:17:56;;;;;;;28.43;18.03;;;2.50;71.30;;;;;;6239569;28;20205;-59
2022/01/26 18:50:50;;;;;;;29.97;16.97;;;2.30;73.10;;;;;;6272785;28;20230;-58
2022/01/26 18:53:51;;;;;;;25.30;16.97;;;2.30;73.20;;;;;;6237725;28;20204;-60
2022/01/26 18:56:53;;;;;;;27.40;17.83;;;2.20;73.20;;;;;;6229391;28;20208;-60
2022/01/26 18:59:54;;;;;;;28.17;16.77;;;2.20;73.20;;;;;;6233062;28;20219;-60
2022/01/26 19:02:55;;;;;;;31.60;18.47;;;2.20;73.10;;;;;;6270053;28;20224;-58
2022/01/26 19:06:00;;;;;;;32.50;17.90;;;2.20;73.10;;;;;;6230157;28;20187;-54
2022/01/26 19:09:01;;;;;;;31.20;19.90;;;2.20;72.70;;;;;;6263287;28;20254;-56
2022/01/26 19:12:05;;;;;;;25.93;17.23;;;2.30;72.90;;;;;;6255185;28;20197;-59
2022/01/26 19:15:11;;;;;;;29.40;17.80;;;2.30;72.30;;;;;;6226904;28;20236;-60
2022/01/26 19:18:20;;;;;;;31.30;19.40;;;2.30;72.40;;;;;;6263782;28;20290;-60
2022/01/26 19:24:54;;;;;;;30.27;18.13;;;2.40;72.20;;;;;;6245178;28;20214;-61
2022/01/26 19:51:27;;;;;;;30.60;17.97;;;2.10;73.50;;;;;;6229994;28;20199;-60
2022/01/26 19:54:28;;;;;;;27.57;17.80;;;2.10;73.70;;;;;;6229184;28;20265;-60
2022/01/26 19:57:29;;;;;;;32.70;19.10;;;2.10;73.80;;;;;;6252986;28;20199;-60
2022/01/26 20:00:31;;;;;;;26.90;17.97;;;2.20;73.60;;;;;;6251474;28;20194;-60
2022/01/26 20:03:34;;;;;;;28.47;18.00;;;2.10;73.40;;;;;;6251330;28;20214;-60
2022/01/26 20:06:36;;;;;;;28.50;18.90;;;2.10;73.40;;;;;;6268438;28;20189;-60
2022/01/26 20:09:44;;;;;;;30.50;18.30;;;2.10;73.30;;;;;;6243202;28;20192;-60
2022/01/26 20:12:49;;;;;;;28.23;17.93;;;2.30;73.00;;;;;;6211134;28;20184;-59
2022/01/26 20:15:50;;;;;;;29.90;19.17;;;2.20;73.10;;;;;;6226715;28;20198;-59
2022/01/26 20:18:51;;;;;;;33.83;20.23;;;2.10;73.30;;;;;;6215620;28;20198;-59
2022/01/26 20:21:51;;;;;;;29.77;19.20;;;2.20;73.00;;;;;;6246848;28;20211;-58
2022/01/26 20:24:53;;;;;;;29.60;20.37;;;2.20;73.00;;;;;;6242799;28;20191;-60
2022/01/26 20:27:53;;;;;;;29.37;19.27;;;2.10;73.40;;;;;;6242714;28;20187;-59
2022/01/26 20:30:55;;;;;;;30.20;19.10;;;2.30;73.10;;;;;;6243732;28;20202;-59
2022/01/26 20:33:56;;;;;;;38.90;21.77;;;2.20;73.20;;;;;;6248420;28;20205;-58
2022/01/26 20:36:57;;;;;;;32.30;19.67;;;2.10;73.10;;;;;;6251151;28;20186;-59
2022/01/26 20:39:59;;;;;;;29.70;19.67;;;2.10;73.30;;;;;;6246553;28;20248;-59
2022/01/26 20:43:00;;;;;;;32.70;20.57;;;2.00;73.60;;;;;;6218383;28;20262;-59
2022/01/26 20:46:05;;;;;;;30.23;19.43;;;2.00;73.40;;;;;;6242911;28;20171;-60
2022/01/26 20:49:06;;;;;;;34.70;20.23;;;1.90;73.80;;;;;;6233938;28;20198;-60
2022/01/26 20:52:07;;;;;;;32.87;20.50;;;2.10;73.40;;;;;;6228949;28;20218;-59
2022/01/26 20:55:08;;;;;;;35.43;20.57;;;2.00;73.70;;;;;;6255783;28;20229;-60
2022/01/26 20:58:09;;;;;;;34.70;19.67;;;1.90;73.80;;;;;;6247446;28;20253;-61
2022/01/26 21:01:10;;;;;;;31.10;19.43;;;1.90;74.40;;;;;;6231940;28;20198;-59
2022/01/26 21:04:11;;;;;;;34.53;19.60;;;2.00;73.40;;;;;;6215322;28;20356;-57
2022/01/26 21:07:12;;;;;;;31.27;18.57;;;1.90;73.50;;;;;;6204231;28;20198;-53
2022/01/26 21:10:13;;;;;;;29.97;20.17;;;1.80;73.90;;;;;;6249940;28;20183;-55
2022/01/26 21:13:14;;;;;;;30.83;19.30;;;1.80;74.10;;;;;;6226822;28;20194;-57
2022/01/26 21:16:15;;;;;;;30.40;19.13;;;1.70;74.60;;;;;;6227282;28;20198;-56
2022/01/26 21:19:16;;;;;;;29.63;18.07;;;1.70;74.00;;;;;;6257294;28;20192;-55
2022/01/26 21:22:17;;;;;;;29.73;17.83;;;1.60;74.30;;;;;;6203242;28;20234;-53
2022/01/26 21:25:18;;;;;;;31.00;19.40;;;1.80;74.30;;;;;;6257553;28;20537;-57
2022/01/26 21:28:19;;;;;;;29.20;19.37;;;1.70;74.50;;;;;;6243324;28;20199;-50
2022/01/26 21:31:20;;;;;;;30.43;18.80;;;1.70;74.70;;;;;;6219502;28;20647;-56
2022/01/26 21:34:22;;;;;;;27.73;18.27;;;1.60;75.10;;;;;;6208146;28;20216;-51
2022/01/26 21:37:22;;;;;;;32.77;19.53;;;1.60;75.30;;;;;;6251510;28;20197;-53
2022/01/26 21:40:24;;;;;;;33.30;20.00;;;1.60;75.10;;;;;;6238258;28;20202;-57
2022/01/26 21:43:26;;;;;;;30.83;19.10;;;1.60;75.10;;;;;;6240028;28;20289;-56
2022/01/26 21:46:27;;;;;;;32.50;20.87;;;1.70;74.90;;;;;;6209987;28;20218;-56
2022/01/26 21:49:27;;;;;;;29.97;18.37;;;1.80;74.10;;;;;;6209708;28;20199;-52
2022/01/26 21:52:30;;;;;;;30.67;19.33;;;1.70;74.50;;;;;;6256677;28;20194;-49
2022/01/26 21:55:30;;;;;;;28.67;17.47;;;1.70;74.60;;;;;;6232427;28;20232;-55
2022/01/26 21:58:31;;;;;;;33.67;21.47;;;1.60;75.00;;;;;;6232302;28;20204;-57
2022/01/26 22:01:34;;;;;;;32.10;19.67;;;1.70;74.70;;;;;;6226071;28;20205;-59
2022/01/26 22:04:35;;;;;;;33.57;20.33;;;1.60;75.20;;;;;;6224187;28;20191;-59
2022/01/26 22:07:36;;;;;;;34.00;20.30;;;1.80;74.30;;;;;;6208060;28;20214;-60
2022/01/26 22:10:36;;;;;;;32.17;19.97;;;1.80;73.90;;;;;;6221687;28;20200;-59
2022/01/26 22:13:37;;;;;;;34.63;20.47;;;1.60;74.50;;;;;;6216276;28;20250;-59
2022/01/26 22:16:38;;;;;;;30.70;18.83;;;1.50;74.80;;;;;;6232183;28;20198;-59
2022/01/26 22:19:39;;;;;;;31.40;20.50;;;1.60;74.80;;;;;;6231747;28;20289;-60
2022/01/26 22:22:41;;;;;;;28.43;17.47;;;1.50;74.70;;;;;;6232072;28;20225;-60
2022/01/26 22:25:42;;;;;;;32.10;19.13;;;1.50;75.00;;;;;;6232601;28;20183;-50
2022/01/26 22:28:47;;;;;;;32.57;20.13;;;1.50;75.20;;;;;;6231970;28;20216;-54
2022/01/26 22:31:49;;;;;;;29.37;18.40;;;1.50;75.40;;;;;;6193137;28;20234;-53